sensor_id;sensor_type;location;lat;lon;timestamp;P1;durP1;ratioP1;P2;durP2;ratioP2
78622;SDS011;67943;54.412;9.502;2023-07-20T00:03:41;4.07;;;1.40;;
78622;SDS011;67943;54.412;9.502;2023-07-20T00:08:44;1.77;;;1.30;;
78622;SDS011;67943;54.412;9.502;2023-07-20T00:13:46;1.95;;;1.30;;
78622;SDS011;67943;54.412;9.502;2023-07-20T00:18:47;2.00;;;1.00;;
78622;SDS011;67943;54.412;9.502;2023-07-20T00:23:50;1.58;;;1.10;;
78622;SDS011;67943;54.412;9.502;2023-07-20T00:28:52;1.65;;;1.20;;
78622;SDS011;67943;54.412;9.502;2023-07-20T00:33:53;3.28;;;1.40;;
78622;SDS011;67943;54.412;9.502;2023-07-20T00:38:56;3.25;;;1.33;;
78622;SDS011;67943;54.412;9.502;2023-07-20T00:43:58;3.38;;;1.58;;
78622;SDS011;67943;54.412;9.502;2023-07-20T00:48:59;3.25;;;1.25;;
78622;SDS011;67943;54.412;9.502;2023-07-20T00:54:03;1.70;;;1.30;;
78622;SDS011;67943;54.412;9.502;2023-07-20T00:59:05;4.40;;;1.90;;
78622;SDS011;67943;54.412;9.502;2023-07-20T01:04:06;2.60;;;1.58;;
78622;SDS011;67943;54.412;9.502;2023-07-20T01:09:11;2.25;;;1.45;;
78622;SDS011;67943;54.412;9.502;2023-07-20T01:14:15;4.35;;;1.60;;
78622;SDS011;67943;54.412;9.502;2023-07-20T01:19:18;2.50;;;1.83;;
78622;SDS011;67943;54.412;9.502;2023-07-20T01:35:35;2.45;;;1.30;;
78622;SDS011;67943;54.412;9.502;2023-07-20T01:40:39;3.17;;;1.65;;
78622;SDS011;67943;54.412;9.502;2023-07-20T01:45:42;2.33;;;1.80;;
78622;SDS011;67943;54.412;9.502;2023-07-20T01:50:45;3.65;;;1.88;;
78622;SDS011;67943;54.412;9.502;2023-07-20T01:55:46;4.47;;;1.50;;
78622;SDS011;67943;54.412;9.502;2023-07-20T02:00:48;2.75;;;1.75;;
78622;SDS011;67943;54.412;9.502;2023-07-20T02:05:51;2.47;;;1.50;;
78622;SDS011;67943;54.412;9.502;2023-07-20T02:10:52;2.63;;;1.63;;
78622;SDS011;67943;54.412;9.502;2023-07-20T02:15:54;3.00;;;1.50;;
78622;SDS011;67943;54.412;9.502;2023-07-20T02:20:57;3.78;;;2.00;;
78622;SDS011;67943;54.412;9.502;2023-07-20T02:25:59;3.83;;;1.65;;
78622;SDS011;67943;54.412;9.502;2023-07-20T02:31:00;2.88;;;2.00;;
78622;SDS011;67943;54.412;9.502;2023-07-20T02:36:03;3.45;;;1.77;;
78622;SDS011;67943;54.412;9.502;2023-07-20T02:41:05;3.95;;;1.65;;
78622;SDS011;67943;54.412;9.502;2023-07-20T02:46:06;2.78;;;1.38;;
78622;SDS011;67943;54.412;9.502;2023-07-20T02:51:09;2.90;;;1.65;;
78622;SDS011;67943;54.412;9.502;2023-07-20T02:56:11;3.00;;;1.80;;
78622;SDS011;67943;54.412;9.502;2023-07-20T03:01:12;3.35;;;1.90;;
78622;SDS011;67943;54.412;9.502;2023-07-20T03:06:16;3.05;;;1.88;;
78622;SDS011;67943;54.412;9.502;2023-07-20T03:11:18;3.83;;;1.83;;
78622;SDS011;67943;54.412;9.502;2023-07-20T03:16:21;2.58;;;1.85;;
78622;SDS011;67943;54.412;9.502;2023-07-20T03:21:24;4.50;;;1.88;;
78622;SDS011;67943;54.412;9.502;2023-07-20T03:26:25;2.35;;;1.50;;
78622;SDS011;67943;54.412;9.502;2023-07-20T03:31:27;3.25;;;1.80;;
78622;SDS011;67943;54.412;9.502;2023-07-20T03:36:30;5.60;;;1.70;;
78622;SDS011;67943;54.412;9.502;2023-07-20T03:41:31;3.47;;;1.65;;
78622;SDS011;67943;54.412;9.502;2023-07-20T03:46:33;3.03;;;1.55;;
78622;SDS011;67943;54.412;9.502;2023-07-20T03:51:36;2.78;;;1.70;;
78622;SDS011;67943;54.412;9.502;2023-07-20T03:56:37;5.10;;;1.50;;
78622;SDS011;67943;54.412;9.502;2023-07-20T04:01:39;6.55;;;1.50;;
78622;SDS011;67943;54.412;9.502;2023-07-20T04:06:43;3.20;;;1.30;;
78622;SDS011;67943;54.412;9.502;2023-07-20T04:11:45;1.77;;;1.05;;
78622;SDS011;67943;54.412;9.502;2023-07-20T04:16:46;2.70;;;1.33;;
78622;SDS011;67943;54.412;9.502;2023-07-20T04:21:49;4.10;;;1.40;;
78622;SDS011;67943;54.412;9.502;2023-07-20T04:26:51;3.25;;;1.40;;
78622;SDS011;67943;54.412;9.502;2023-07-20T04:31:52;3.03;;;1.60;;
78622;SDS011;67943;54.412;9.502;2023-07-20T04:36:55;3.38;;;1.60;;
78622;SDS011;67943;54.412;9.502;2023-07-20T04:41:56;4.10;;;1.80;;
78622;SDS011;67943;54.412;9.502;2023-07-20T04:46:58;5.00;;;1.70;;
78622;SDS011;67943;54.412;9.502;2023-07-20T04:52:01;5.13;;;1.73;;
78622;SDS011;67943;54.412;9.502;2023-07-20T04:57:05;7.82;;;1.92;;
78622;SDS011;67943;54.412;9.502;2023-07-20T05:02:12;6.18;;;1.70;;
78622;SDS011;67943;54.412;9.502;2023-07-20T05:07:15;5.50;;;1.90;;
78622;SDS011;67943;54.412;9.502;2023-07-20T05:12:17;3.50;;;1.90;;
78622;SDS011;67943;54.412;9.502;2023-07-20T05:17:18;6.90;;;2.00;;
78622;SDS011;67943;54.412;9.502;2023-07-20T05:22:21;5.32;;;1.88;;
78622;SDS011;67943;54.412;9.502;2023-07-20T05:27:23;5.47;;;1.90;;
78622;SDS011;67943;54.412;9.502;2023-07-20T05:32:24;7.50;;;2.15;;
78622;SDS011;67943;54.412;9.502;2023-07-20T05:37:27;7.85;;;2.20;;
78622;SDS011;67943;54.412;9.502;2023-07-20T05:42:29;5.32;;;2.17;;
78622;SDS011;67943;54.412;9.502;2023-07-20T05:47:30;6.15;;;2.10;;
78622;SDS011;67943;54.412;9.502;2023-07-20T05:52:33;6.55;;;2.03;;
78622;SDS011;67943;54.412;9.502;2023-07-20T05:57:35;6.43;;;1.77;;
78622;SDS011;67943;54.412;9.502;2023-07-20T06:02:39;7.85;;;2.05;;
78622;SDS011;67943;54.412;9.502;2023-07-20T06:07:42;9.82;;;2.15;;
78622;SDS011;67943;54.412;9.502;2023-07-20T06:12:44;6.85;;;1.92;;
78622;SDS011;67943;54.412;9.502;2023-07-20T06:17:45;5.85;;;2.08;;
78622;SDS011;67943;54.412;9.502;2023-07-20T06:22:49;6.40;;;1.70;;
78622;SDS011;67943;54.412;9.502;2023-07-20T06:27:51;5.82;;;1.80;;
78622;SDS011;67943;54.412;9.502;2023-07-20T06:32:52;7.47;;;1.75;;
78622;SDS011;67943;54.412;9.502;2023-07-20T06:37:55;8.10;;;1.80;;
78622;SDS011;67943;54.412;9.502;2023-07-20T06:42:57;10.73;;;2.40;;
78622;SDS011;67943;54.412;9.502;2023-07-20T06:47:59;9.63;;;1.90;;
78622;SDS011;67943;54.412;9.502;2023-07-20T06:53:02;8.15;;;1.70;;
78622;SDS011;67943;54.412;9.502;2023-07-20T06:58:04;7.72;;;2.17;;
78622;SDS011;67943;54.412;9.502;2023-07-20T07:03:05;8.75;;;1.65;;
78622;SDS011;67943;54.412;9.502;2023-07-20T07:08:08;7.60;;;2.05;;
78622;SDS011;67943;54.412;9.502;2023-07-20T07:13:10;10.20;;;1.70;;
78622;SDS011;67943;54.412;9.502;2023-07-20T07:18:11;5.35;;;1.13;;
78622;SDS011;67943;54.412;9.502;2023-07-20T07:23:14;9.38;;;1.50;;
78622;SDS011;67943;54.412;9.502;2023-07-20T07:28:16;6.30;;;1.30;;
78622;SDS011;67943;54.412;9.502;2023-07-20T07:33:17;4.80;;;1.30;;
78622;SDS011;67943;54.412;9.502;2023-07-20T07:38:20;5.32;;;1.95;;
78622;SDS011;67943;54.412;9.502;2023-07-20T07:43:22;5.95;;;1.33;;
78622;SDS011;67943;54.412;9.502;2023-07-20T07:48:23;4.57;;;0.90;;
78622;SDS011;67943;54.412;9.502;2023-07-20T07:53:26;6.07;;;0.90;;
78622;SDS011;67943;54.412;9.502;2023-07-20T07:58:28;6.30;;;1.00;;
78622;SDS011;67943;54.412;9.502;2023-07-20T08:03:29;5.63;;;1.17;;
78622;SDS011;67943;54.412;9.502;2023-07-20T08:08:32;5.90;;;1.00;;
78622;SDS011;67943;54.412;9.502;2023-07-20T08:13:35;3.28;;;0.80;;
78622;SDS011;67943;54.412;9.502;2023-07-20T08:18:37;2.88;;;0.50;;
78622;SDS011;67943;54.412;9.502;2023-07-20T08:23:40;4.13;;;0.60;;
78622;SDS011;67943;54.412;9.502;2023-07-20T08:28:42;4.80;;;0.90;;
78622;SDS011;67943;54.412;9.502;2023-07-20T08:33:45;2.17;;;0.60;;
78622;SDS011;67943;54.412;9.502;2023-07-20T08:38:48;2.97;;;0.55;;
78622;SDS011;67943;54.412;9.502;2023-07-20T08:43:50;3.83;;;0.70;;
78622;SDS011;67943;54.412;9.502;2023-07-20T08:48:55;5.72;;;0.50;;
78622;SDS011;67943;54.412;9.502;2023-07-20T08:54:00;4.35;;;0.73;;
78622;SDS011;67943;54.412;9.502;2023-07-20T08:59:01;4.53;;;0.70;;
78622;SDS011;67943;54.412;9.502;2023-07-20T09:04:03;2.58;;;0.50;;
78622;SDS011;67943;54.412;9.502;2023-07-20T09:09:06;3.08;;;0.40;;
78622;SDS011;67943;54.412;9.502;2023-07-20T09:14:08;1.63;;;0.40;;
78622;SDS011;67943;54.412;9.502;2023-07-20T09:19:11;1.70;;;0.40;;
78622;SDS011;67943;54.412;9.502;2023-07-20T09:24:14;3.45;;;0.70;;
78622;SDS011;67943;54.412;9.502;2023-07-20T09:29:17;5.00;;;1.30;;
78622;SDS011;67943;54.412;9.502;2023-07-20T09:34:19;6.45;;;1.00;;
78622;SDS011;67943;54.412;9.502;2023-07-20T09:39:23;4.90;;;1.20;;
78622;SDS011;67943;54.412;9.502;2023-07-20T09:44:27;2.92;;;1.10;;
78622;SDS011;67943;54.412;9.502;2023-07-20T09:49:28;7.32;;;1.60;;
78622;SDS011;67943;54.412;9.502;2023-07-20T09:54:31;6.65;;;1.10;;
78622;SDS011;67943;54.412;9.502;2023-07-20T09:59:33;6.75;;;0.98;;
78622;SDS011;67943;54.412;9.502;2023-07-20T10:04:35;6.47;;;1.73;;
78622;SDS011;67943;54.412;9.502;2023-07-20T10:09:39;5.13;;;1.27;;
78622;SDS011;67943;54.412;9.502;2023-07-20T10:14:44;7.50;;;1.17;;
78622;SDS011;67943;54.412;9.502;2023-07-20T10:19:59;6.90;;;1.20;;
78622;SDS011;67943;54.412;9.502;2023-07-20T10:25:06;5.05;;;1.23;;
78622;SDS011;67943;54.412;9.502;2023-07-20T10:30:09;2.85;;;1.00;;
78622;SDS011;67943;54.412;9.502;2023-07-20T10:35:12;6.43;;;1.25;;
78622;SDS011;67943;54.412;9.502;2023-07-20T10:40:26;5.00;;;1.13;;
78622;SDS011;67943;54.412;9.502;2023-07-20T10:45:34;7.32;;;1.27;;
78622;SDS011;67943;54.412;9.502;2023-07-20T10:50:36;5.60;;;1.40;;
78622;SDS011;67943;54.412;9.502;2023-07-20T10:55:39;3.70;;;1.10;;
78622;SDS011;67943;54.412;9.502;2023-07-20T11:01:00;3.28;;;1.10;;
78622;SDS011;67943;54.412;9.502;2023-07-20T11:11:42;4.82;;;1.35;;
78622;SDS011;67943;54.412;9.502;2023-07-20T11:16:45;4.35;;;1.02;;
78622;SDS011;67943;54.412;9.502;2023-07-20T11:21:49;3.17;;;1.00;;
78622;SDS011;67943;54.412;9.502;2023-07-20T11:26:53;3.90;;;1.30;;
78622;SDS011;67943;54.412;9.502;2023-07-20T11:31:55;4.97;;;1.23;;
78622;SDS011;67943;54.412;9.502;2023-07-20T11:36:57;4.10;;;1.00;;
78622;SDS011;67943;54.412;9.502;2023-07-20T11:42:00;6.35;;;1.40;;
78622;SDS011;67943;54.412;9.502;2023-07-20T11:47:02;7.07;;;1.35;;
78622;SDS011;67943;54.412;9.502;2023-07-20T11:52:05;7.35;;;1.70;;
78622;SDS011;67943;54.412;9.502;2023-07-20T11:57:16;8.57;;;1.48;;
78622;SDS011;67943;54.412;9.502;2023-07-20T12:02:18;5.65;;;1.30;;
78622;SDS011;67943;54.412;9.502;2023-07-20T12:07:19;6.93;;;1.40;;
78622;SDS011;67943;54.412;9.502;2023-07-20T12:12:22;5.70;;;1.48;;
78622;SDS011;67943;54.412;9.502;2023-07-20T12:17:26;5.68;;;1.13;;
78622;SDS011;67943;54.412;9.502;2023-07-20T12:22:28;1.90;;;0.77;;
78622;SDS011;67943;54.412;9.502;2023-07-20T12:27:30;1.98;;;0.70;;
78622;SDS011;67943;54.412;9.502;2023-07-20T12:32:32;3.88;;;1.00;;
78622;SDS011;67943;54.412;9.502;2023-07-20T12:37:34;2.97;;;0.70;;
78622;SDS011;67943;54.412;9.502;2023-07-20T12:42:37;4.55;;;1.13;;
78622;SDS011;67943;54.412;9.502;2023-07-20T12:47:39;5.50;;;1.52;;
78622;SDS011;67943;54.412;9.502;2023-07-20T12:52:40;3.10;;;1.20;;
78622;SDS011;67943;54.412;9.502;2023-07-20T12:57:43;3.88;;;1.02;;
78622;SDS011;67943;54.412;9.502;2023-07-20T13:02:47;4.15;;;0.95;;
78622;SDS011;67943;54.412;9.502;2023-07-20T13:07:48;3.25;;;1.05;;
78622;SDS011;67943;54.412;9.502;2023-07-20T13:12:51;5.90;;;1.30;;
78622;SDS011;67943;54.412;9.502;2023-07-20T13:17:52;3.85;;;1.05;;
78622;SDS011;67943;54.412;9.502;2023-07-20T13:22:54;7.15;;;1.30;;
78622;SDS011;67943;54.412;9.502;2023-07-20T13:27:57;4.40;;;1.13;;
78622;SDS011;67943;54.412;9.502;2023-07-20T13:32:58;2.67;;;0.82;;
78622;SDS011;67943;54.412;9.502;2023-07-20T13:38:00;3.88;;;1.25;;
78622;SDS011;67943;54.412;9.502;2023-07-20T13:43:03;5.10;;;1.10;;
78622;SDS011;67943;54.412;9.502;2023-07-20T13:48:05;5.47;;;1.00;;
78622;SDS011;67943;54.412;9.502;2023-07-20T13:53:06;3.88;;;1.20;;
78622;SDS011;67943;54.412;9.502;2023-07-20T13:58:09;4.00;;;1.00;;
78622;SDS011;67943;54.412;9.502;2023-07-20T14:03:11;4.40;;;1.30;;
78622;SDS011;67943;54.412;9.502;2023-07-20T14:08:12;5.18;;;1.05;;
78622;SDS011;67943;54.412;9.502;2023-07-20T14:13:15;5.28;;;1.10;;
78622;SDS011;67943;54.412;9.502;2023-07-20T14:18:17;2.53;;;1.08;;
78622;SDS011;67943;54.412;9.502;2023-07-20T14:23:18;3.50;;;0.70;;
78622;SDS011;67943;54.412;9.502;2023-07-20T14:28:21;4.88;;;1.00;;
78622;SDS011;67943;54.412;9.502;2023-07-20T14:33:22;4.82;;;1.13;;
78622;SDS011;67943;54.412;9.502;2023-07-20T14:38:24;3.00;;;0.98;;
78622;SDS011;67943;54.412;9.502;2023-07-20T14:43:27;4.40;;;1.50;;
78622;SDS011;67943;54.412;9.502;2023-07-20T14:48:29;7.03;;;1.38;;
78622;SDS011;67943;54.412;9.502;2023-07-20T14:53:30;3.67;;;1.23;;
78622;SDS011;67943;54.412;9.502;2023-07-20T14:58:33;4.22;;;1.10;;
78622;SDS011;67943;54.412;9.502;2023-07-20T15:03:35;4.93;;;1.30;;
78622;SDS011;67943;54.412;9.502;2023-07-20T15:08:36;5.72;;;1.67;;
78622;SDS011;67943;54.412;9.502;2023-07-20T15:13:39;7.88;;;1.52;;
78622;SDS011;67943;54.412;9.502;2023-07-20T15:18:42;4.85;;;1.20;;
78622;SDS011;67943;54.412;9.502;2023-07-20T15:23:44;6.30;;;1.40;;
78622;SDS011;67943;54.412;9.502;2023-07-20T15:28:47;7.38;;;1.10;;
78622;SDS011;67943;54.412;9.502;2023-07-20T15:33:49;2.63;;;0.90;;
78622;SDS011;67943;54.412;9.502;2023-07-20T15:38:52;3.78;;;1.00;;
78622;SDS011;67943;54.412;9.502;2023-07-20T15:43:55;4.05;;;1.20;;
78622;SDS011;67943;54.412;9.502;2023-07-20T15:48:56;4.50;;;0.90;;
78622;SDS011;67943;54.412;9.502;2023-07-20T15:53:58;5.97;;;1.20;;
78622;SDS011;67943;54.412;9.502;2023-07-20T15:59:01;4.97;;;1.33;;
78622;SDS011;67943;54.412;9.502;2023-07-20T16:04:02;4.93;;;1.40;;
78622;SDS011;67943;54.412;9.502;2023-07-20T16:09:04;2.60;;;1.08;;
78622;SDS011;67943;54.412;9.502;2023-07-20T16:14:07;5.80;;;1.25;;
78622;SDS011;67943;54.412;9.502;2023-07-20T16:19:09;5.68;;;1.75;;
78622;SDS011;67943;54.412;9.502;2023-07-20T16:24:10;4.88;;;1.20;;
78622;SDS011;67943;54.412;9.502;2023-07-20T16:29:13;3.35;;;1.30;;
78622;SDS011;67943;54.412;9.502;2023-07-20T16:34:15;4.75;;;1.20;;
78622;SDS011;67943;54.412;9.502;2023-07-20T16:39:17;7.90;;;1.70;;
78622;SDS011;67943;54.412;9.502;2023-07-20T16:44:19;11.27;;;1.60;;
78622;SDS011;67943;54.412;9.502;2023-07-20T16:49:21;5.43;;;1.42;;
78622;SDS011;67943;54.412;9.502;2023-07-20T16:54:22;22.30;;;4.10;;
78622;SDS011;67943;54.412;9.502;2023-07-20T16:59:25;7.65;;;1.40;;
78622;SDS011;67943;54.412;9.502;2023-07-20T17:04:27;2.38;;;0.85;;
78622;SDS011;67943;54.412;9.502;2023-07-20T17:09:29;2.85;;;0.75;;
78622;SDS011;67943;54.412;9.502;2023-07-20T17:14:32;3.40;;;0.82;;
78622;SDS011;67943;54.412;9.502;2023-07-20T17:19:34;4.40;;;1.08;;
78622;SDS011;67943;54.412;9.502;2023-07-20T17:24:36;3.60;;;1.00;;
78622;SDS011;67943;54.412;9.502;2023-07-20T17:29:38;3.55;;;0.90;;
78622;SDS011;67943;54.412;9.502;2023-07-20T17:34:40;3.22;;;1.05;;
78622;SDS011;67943;54.412;9.502;2023-07-20T17:39:41;3.83;;;0.90;;
78622;SDS011;67943;54.412;9.502;2023-07-20T17:44:44;4.68;;;1.20;;
78622;SDS011;67943;54.412;9.502;2023-07-20T17:49:46;4.65;;;1.30;;
78622;SDS011;67943;54.412;9.502;2023-07-20T17:54:48;4.25;;;1.10;;
78622;SDS011;67943;54.412;9.502;2023-07-20T17:59:51;6.50;;;1.80;;
78622;SDS011;67943;54.412;9.502;2023-07-20T18:04:52;4.00;;;1.20;;
78622;SDS011;67943;54.412;9.502;2023-07-20T18:09:54;4.43;;;2.05;;
78622;SDS011;67943;54.412;9.502;2023-07-20T18:14:57;8.27;;;1.50;;
78622;SDS011;67943;54.412;9.502;2023-07-20T18:19:59;4.70;;;1.30;;
78622;SDS011;67943;54.412;9.502;2023-07-20T18:25:00;4.93;;;1.20;;
78622;SDS011;67943;54.412;9.502;2023-07-20T18:30:04;2.70;;;1.00;;
78622;SDS011;67943;54.412;9.502;2023-07-20T18:35:07;3.28;;;1.10;;
78622;SDS011;67943;54.412;9.502;2023-07-20T18:40:09;2.85;;;0.80;;
78622;SDS011;67943;54.412;9.502;2023-07-20T18:45:12;3.20;;;1.10;;
78622;SDS011;67943;54.412;9.502;2023-07-20T18:50:14;4.15;;;1.17;;
78622;SDS011;67943;54.412;9.502;2023-07-20T18:55:17;3.35;;;1.08;;
78622;SDS011;67943;54.412;9.502;2023-07-20T19:00:20;3.00;;;1.00;;
78622;SDS011;67943;54.412;9.502;2023-07-20T19:05:21;2.33;;;0.90;;
78622;SDS011;67943;54.412;9.502;2023-07-20T19:10:24;4.18;;;0.80;;
78622;SDS011;67943;54.412;9.502;2023-07-20T19:15:28;3.85;;;1.30;;
78622;SDS011;67943;54.412;9.502;2023-07-20T19:20:30;2.17;;;1.10;;
78622;SDS011;67943;54.412;9.502;2023-07-20T19:25:31;2.13;;;1.10;;
78622;SDS011;67943;54.412;9.502;2023-07-20T19:30:34;3.60;;;1.05;;
78622;SDS011;67943;54.412;9.502;2023-07-20T19:35:35;3.38;;;1.35;;
78622;SDS011;67943;54.412;9.502;2023-07-20T19:40:37;3.25;;;1.00;;
78622;SDS011;67943;54.412;9.502;2023-07-20T19:45:41;2.42;;;1.00;;
78622;SDS011;67943;54.412;9.502;2023-07-20T19:50:43;8.60;;;1.90;;
78622;SDS011;67943;54.412;9.502;2023-07-20T19:55:46;3.45;;;1.45;;
78622;SDS011;67943;54.412;9.502;2023-07-20T20:00:49;3.53;;;1.38;;
78622;SDS011;67943;54.412;9.502;2023-07-20T20:05:51;4.13;;;1.30;;
78622;SDS011;67943;54.412;9.502;2023-07-20T20:10:53;5.95;;;1.70;;
78622;SDS011;67943;54.412;9.502;2023-07-20T20:15:56;5.22;;;1.38;;
78622;SDS011;67943;54.412;9.502;2023-07-20T20:20:58;3.13;;;1.50;;
78622;SDS011;67943;54.412;9.502;2023-07-20T20:26:00;3.95;;;1.55;;
78622;SDS011;67943;54.412;9.502;2023-07-20T20:31:03;3.65;;;1.60;;
78622;SDS011;67943;54.412;9.502;2023-07-20T20:36:06;3.85;;;1.40;;
78622;SDS011;67943;54.412;9.502;2023-07-20T20:41:08;5.82;;;1.77;;
78622;SDS011;67943;54.412;9.502;2023-07-20T20:46:10;3.13;;;1.27;;
78622;SDS011;67943;54.412;9.502;2023-07-20T20:51:13;4.35;;;1.52;;
78622;SDS011;67943;54.412;9.502;2023-07-20T20:56:14;3.58;;;1.40;;
78622;SDS011;67943;54.412;9.502;2023-07-20T21:01:17;3.00;;;1.48;;
78622;SDS011;67943;54.412;9.502;2023-07-20T21:06:19;3.75;;;1.25;;
78622;SDS011;67943;54.412;9.502;2023-07-20T21:11:20;4.60;;;1.48;;
78622;SDS011;67943;54.412;9.502;2023-07-20T21:16:23;4.05;;;1.30;;
78622;SDS011;67943;54.412;9.502;2023-07-20T21:21:25;6.93;;;1.40;;
78622;SDS011;67943;54.412;9.502;2023-07-20T21:26:27;6.50;;;1.52;;
78622;SDS011;67943;54.412;9.502;2023-07-20T21:31:29;2.92;;;1.42;;
78622;SDS011;67943;54.412;9.502;2023-07-20T21:36:31;4.00;;;1.85;;
78622;SDS011;67943;54.412;9.502;2023-07-20T21:41:32;4.85;;;1.50;;
78622;SDS011;67943;54.412;9.502;2023-07-20T21:46:35;3.50;;;1.50;;
78622;SDS011;67943;54.412;9.502;2023-07-20T21:51:37;3.08;;;1.40;;
78622;SDS011;67943;54.412;9.502;2023-07-20T21:56:38;1.90;;;1.17;;
78622;SDS011;67943;54.412;9.502;2023-07-20T22:01:42;3.15;;;1.27;;
78622;SDS011;67943;54.412;9.502;2023-07-20T22:06:43;4.45;;;1.45;;
78622;SDS011;67943;54.412;9.502;2023-07-20T22:11:46;6.00;;;1.65;;
78622;SDS011;67943;54.412;9.502;2023-07-20T22:16:49;4.78;;;1.55;;
78622;SDS011;67943;54.412;9.502;2023-07-20T22:21:50;3.80;;;1.45;;
78622;SDS011;67943;54.412;9.502;2023-07-20T22:26:53;3.35;;;1.88;;
78622;SDS011;67943;54.412;9.502;2023-07-20T22:31:56;5.25;;;1.83;;
78622;SDS011;67943;54.412;9.502;2023-07-20T22:36:58;4.10;;;1.98;;
78622;SDS011;67943;54.412;9.502;2023-07-20T22:42:00;3.58;;;1.83;;
78622;SDS011;67943;54.412;9.502;2023-07-20T22:47:04;6.03;;;1.75;;
78622;SDS011;67943;54.412;9.502;2023-07-20T22:52:06;4.63;;;1.75;;
78622;SDS011;67943;54.412;9.502;2023-07-20T22:57:08;6.00;;;1.80;;
78622;SDS011;67943;54.412;9.502;2023-07-20T23:02:11;4.28;;;2.35;;
78622;SDS011;67943;54.412;9.502;2023-07-20T23:07:12;6.43;;;2.38;;
78622;SDS011;67943;54.412;9.502;2023-07-20T23:12:14;4.40;;;2.10;;
78622;SDS011;67943;54.412;9.502;2023-07-20T23:17:17;4.18;;;2.13;;
78622;SDS011;67943;54.412;9.502;2023-07-20T23:22:19;4.78;;;2.20;;
78622;SDS011;67943;54.412;9.502;2023-07-20T23:27:21;7.95;;;2.30;;
78622;SDS011;67943;54.412;9.502;2023-07-20T23:32:24;5.07;;;2.35;;
78622;SDS011;67943;54.412;9.502;2023-07-20T23:37:25;4.20;;;2.30;;
78622;SDS011;67943;54.412;9.502;2023-07-20T23:42:27;6.38;;;2.45;;
78622;SDS011;67943;54.412;9.502;2023-07-20T23:47:29;5.15;;;2.22;;
78622;SDS011;67943;54.412;9.502;2023-07-20T23:52:32;6.30;;;2.50;;
78622;SDS011;67943;54.412;9.502;2023-07-20T23:57:34;6.22;;;2.08;;
